createdAt,value
2019-01-30T00:01:01.322Z,95802.95
2019-01-30T00:04:08.948Z,95794.97
2019-01-30T00:07:16.786Z,95791.28
2019-01-30T00:10:23.527Z,95788.61
2019-01-30T00:13:30.081Z,95783.69
2019-01-30T00:16:37.285Z,95778.61
2019-01-30T00:19:45.373Z,95775.29
2019-01-30T00:22:51.976Z,95778.49
2019-01-30T00:25:58.582Z,95774.02
2019-01-30T00:29:05.761Z,95774.83
2019-01-30T00:32:15.057Z,95771.83
2019-01-30T00:35:20.956Z,95762.89
2019-01-30T00:38:27.496Z,95760.05
2019-01-30T00:41:34.581Z,95759.22
2019-01-30T00:44:41.212Z,95752.10
2019-01-30T00:47:48.037Z,95745.13
2019-01-30T00:50:54.580Z,95739.47
2019-01-30T00:54:01.043Z,95748.84
2019-01-30T00:57:07.418Z,95739.72
2019-01-30T01:00:16.929Z,95733.30
2019-01-30T01:03:23.581Z,95733.20
2019-01-30T01:06:29.868Z,95728.06
2019-01-30T01:09:36.415Z,95730.49
2019-01-30T01:12:43.641Z,95722.27
2019-01-30T01:15:50.431Z,95725.36
2019-01-30T01:18:57.065Z,95716.48
2019-01-30T01:22:03.437Z,95714.81
2019-01-30T01:25:12.573Z,95711.94
2019-01-30T01:28:19.122Z,95705.97
2019-01-30T01:31:26.611Z,95707.42
2019-01-30T01:34:33.131Z,95702.16
2019-01-30T01:37:39.505Z,95700.94
2019-01-30T01:40:46.249Z,95698.75
2019-01-30T01:43:53.054Z,95694.63
2019-01-30T01:46:59.720Z,95693.09
2019-01-30T01:50:07.997Z,95691.64
2019-01-30T01:53:14.873Z,95678.81
2019-01-30T01:56:21.687Z,95676.04
2019-01-30T01:59:28.430Z,95662.03
2019-01-30T02:02:35.071Z,95660.44
2019-01-30T02:05:41.503Z,95654.23
2019-01-30T02:08:48.277Z,95654.13
2019-01-30T02:11:54.994Z,95652.52
2019-01-30T02:15:01.370Z,95643.66
2019-01-30T02:18:08.601Z,95638.73
2019-01-30T02:21:15.542Z,95644.14
2019-01-30T02:24:22.078Z,95630.50
2019-01-30T02:27:28.566Z,95621.43
2019-01-30T02:30:46.569Z,95617.62
2019-01-30T02:33:43.933Z,95612.52
2019-01-30T02:36:59.629Z,95599.12
2019-01-30T02:40:07.875Z,95596.64
2019-01-30T02:43:14.542Z,95590.05
2019-01-30T02:46:21.238Z,95585.66
2019-01-30T02:49:27.678Z,95582.68
2019-01-30T02:52:34.409Z,95577.58
2019-01-30T02:55:41.219Z,95582.40
2019-01-30T02:58:47.807Z,95569.51
2019-01-30T03:02:11.331Z,95572.55
2019-01-30T03:05:18.310Z,95569.41
2019-01-30T03:08:25.186Z,95569.81
2019-01-30T03:11:32.161Z,95565.50
2019-01-30T03:14:40.598Z,95570.55
2019-01-30T03:17:47.436Z,95558.48
2019-01-30T03:20:54.166Z,95569.11
2019-01-30T03:24:00.988Z,95562.39
2019-01-30T03:27:07.602Z,95559.21
2019-01-30T03:30:21.915Z,95553.52
2019-01-30T03:33:28.386Z,95555.56
2019-01-30T03:36:36.423Z,95548.59
2019-01-30T03:39:43.344Z,95553.08
2019-01-30T03:42:50.122Z,95550.52
2019-01-30T03:45:56.534Z,95545.75
2019-01-30T03:49:03.449Z,95538.92
2019-01-30T03:52:09.948Z,95542.09
2019-01-30T03:55:18.375Z,95532.52
2019-01-30T03:58:25.021Z,95529.13
2019-01-30T04:01:31.471Z,95522.92
2019-01-30T04:04:38.295Z,95520.74
2019-01-30T04:07:44.779Z,95512.54
2019-01-30T04:10:51.039Z,95509.53
2019-01-30T04:14:00.570Z,95511.30
2019-01-30T04:20:38.476Z,95498.77
2019-01-30T04:23:45.382Z,95498.59
2019-01-30T04:26:51.786Z,95501.95
2019-01-30T04:29:58.202Z,95485.19
2019-01-30T04:33:04.755Z,95485.33
2019-01-30T04:36:11.688Z,95479.23
2019-01-30T04:39:18.595Z,95478.71
2019-01-30T04:42:26.765Z,95478.50
2019-01-30T04:45:33.240Z,95474.34
2019-01-30T04:48:40.049Z,95470.88
2019-01-30T04:51:51.100Z,95479.66
2019-01-30T04:54:58.161Z,95474.07
2019-01-30T04:58:04.904Z,95470.58
2019-01-30T05:01:11.917Z,95463.72
2019-01-30T05:04:18.323Z,95453.09
2019-01-30T05:07:24.802Z,95454.03
2019-01-30T05:10:34.052Z,95452.64
2019-01-30T05:13:40.606Z,95448.19
2019-01-30T05:16:47.464Z,95444.55
2019-01-30T05:19:54.150Z,95451.82
2019-01-30T05:23:03.484Z,95449.26
2019-01-30T05:26:10.431Z,95440.30
2019-01-30T05:29:17.102Z,95448.67
2019-01-30T05:32:23.720Z,95437.07
2019-01-30T05:35:30.155Z,95437.38
2019-01-30T05:38:36.677Z,95430.52
2019-01-30T05:41:43.391Z,95427.75
2019-01-30T05:44:49.881Z,95426.67
2019-01-30T05:47:56.486Z,95424.56
2019-01-30T05:51:02.819Z,95423.49
2019-01-30T05:54:09.498Z,95420.67
2019-01-30T05:57:16.007Z,95415.66
2019-01-30T06:00:27.206Z,95414.98
2019-01-30T06:03:33.863Z,95414.09
2019-01-30T06:06:40.977Z,95417.27
2019-01-30T06:09:48.187Z,95413.42
2019-01-30T06:12:55.586Z,95407.73
2019-01-30T06:16:02.320Z,95400.61
2019-01-30T06:19:08.814Z,95399.98
2019-01-30T06:22:15.547Z,95403.11
2019-01-30T06:25:22.377Z,95394.58
2019-01-30T06:28:29.357Z,95402.34
2019-01-30T06:31:38.590Z,95404.00
2019-01-30T06:34:45.812Z,95401.09
2019-01-30T06:37:52.655Z,95404.80
2019-01-30T06:40:59.149Z,95412.92
2019-01-30T06:44:05.839Z,95411.15
2019-01-30T06:47:12.553Z,95404.98
2019-01-30T06:50:19.351Z,95407.92
2019-01-30T06:53:26.082Z,95399.30
2019-01-30T06:56:32.892Z,95391.97
2019-01-30T06:59:40.338Z,95395.19
2019-01-30T07:02:47.217Z,95385.72
2019-01-30T07:05:54.061Z,95384.45
2019-01-30T07:09:00.676Z,95387.38
2019-01-30T07:12:07.433Z,95383.32
2019-01-30T07:15:14.630Z,95376.95
2019-01-30T07:18:21.500Z,95372.59
2019-01-30T07:21:29.066Z,95377.09
2019-01-30T07:24:36.510Z,95372.80
2019-01-30T07:27:43.586Z,95378.05
2019-01-30T07:30:50.766Z,95375.19
2019-01-30T07:33:57.440Z,95375.83
2019-01-30T07:37:04.337Z,95379.08
2019-01-30T07:40:11.279Z,95371.97
2019-01-30T07:43:19.117Z,95378.05
2019-01-30T07:46:25.968Z,95380.84
2019-01-30T07:49:32.679Z,95372.34
2019-01-30T07:52:39.919Z,95375.74
2019-01-30T07:55:47.050Z,95365.62
2019-01-30T07:58:53.691Z,95364.52
2019-01-30T08:02:01.335Z,95363.09
2019-01-30T08:05:08.619Z,95367.30
2019-01-30T08:08:15.269Z,95368.59
2019-01-30T08:11:22.089Z,95367.20
2019-01-30T08:14:28.608Z,95368.11
2019-01-30T08:17:35.355Z,95367.49
2019-01-30T08:20:42.083Z,95366.84
2019-01-30T08:23:49.378Z,95364.20
2019-01-30T08:26:56.600Z,95365.27
2019-01-30T08:30:03.306Z,95362.80
2019-01-30T08:33:10.097Z,95363.85
2019-01-30T08:36:16.844Z,95359.86
2019-01-30T08:39:23.451Z,95358.48
2019-01-30T08:42:30.308Z,95356.09
2019-01-30T08:45:36.879Z,95351.46
2019-01-30T08:48:43.596Z,95353.66
2019-01-30T08:51:50.781Z,95351.52
2019-01-30T08:54:57.252Z,95346.80
2019-01-30T08:58:04.065Z,95344.83
2019-01-30T09:01:11.276Z,95340.64
2019-01-30T09:04:17.960Z,95351.50
2019-01-30T09:07:24.177Z,95345.92
2019-01-30T09:10:31.267Z,95346.23
2019-01-30T09:13:39.024Z,95350.83
2019-01-30T09:16:45.814Z,95347.77
2019-01-30T09:19:52.355Z,95341.25
2019-01-30T09:22:59.085Z,95345.70
2019-01-30T09:26:06.015Z,95345.56
2019-01-30T09:29:12.886Z,95333.91
2019-01-30T09:32:19.647Z,95333.28
2019-01-30T09:35:26.849Z,95338.67
2019-01-30T09:38:33.780Z,95338.72
2019-01-30T09:41:40.493Z,95340.59
2019-01-30T09:44:47.209Z,95340.46
2019-01-30T09:47:53.515Z,95342.08
2019-01-30T09:51:00.109Z,95336.77
2019-01-30T09:54:07.116Z,95334.76
2019-01-30T09:57:14.165Z,95335.23
2019-01-30T10:00:32.343Z,95329.66
2019-01-30T10:03:39.199Z,95329.00
2019-01-30T10:06:45.990Z,95331.53
2019-01-30T10:09:52.822Z,95330.81
2019-01-30T10:12:59.255Z,95323.05
2019-01-30T10:16:06.142Z,95323.64
2019-01-30T10:19:12.522Z,95326.84
2019-01-30T10:22:18.910Z,95321.27
2019-01-30T10:25:25.614Z,95317.69
2019-01-30T10:28:32.640Z,95315.02
2019-01-30T10:31:39.483Z,95320.30
2019-01-30T10:34:46.501Z,95315.03
2019-01-30T10:37:52.840Z,95320.87
2019-01-30T10:41:01.837Z,95318.11
2019-01-30T10:44:09.057Z,95311.34
2019-01-30T10:47:18.829Z,95305.69
2019-01-30T10:50:27.315Z,95304.45
2019-01-30T10:53:34.906Z,95303.63
2019-01-30T10:56:41.591Z,95294.95
2019-01-30T10:59:48.649Z,95294.62
2019-01-30T11:02:55.429Z,95299.62
2019-01-30T11:06:02.109Z,95294.55
2019-01-30T11:09:11.235Z,95294.62
2019-01-30T11:12:18.521Z,95288.27
2019-01-30T11:15:27.526Z,95293.12
2019-01-30T11:18:34.423Z,95289.36
2019-01-30T11:21:41.425Z,95291.77
2019-01-30T11:24:48.045Z,95287.00
2019-01-30T11:27:54.573Z,95279.47
2019-01-30T11:31:01.362Z,95262.80
2019-01-30T11:34:08.113Z,95262.20
2019-01-30T11:37:14.830Z,95261.17
2019-01-30T11:40:21.766Z,95267.37
2019-01-30T11:43:31.165Z,95254.41
2019-01-30T11:46:38.489Z,95260.75
2019-01-30T11:49:45.025Z,95253.05
2019-01-30T11:52:51.597Z,95247.13
2019-01-30T11:55:58.266Z,95244.00
2019-01-30T11:59:05.469Z,95240.62
2019-01-30T12:02:12.119Z,95239.52
2019-01-30T12:05:19.079Z,95242.84
2019-01-30T12:08:25.601Z,95237.17
2019-01-30T12:11:32.851Z,95232.34
2019-01-30T12:14:39.441Z,95232.34
2019-01-30T12:17:46.470Z,95234.66
2019-01-30T12:20:53.220Z,95223.90
2019-01-30T12:24:00.246Z,95235.32
2019-01-30T12:27:07.164Z,95242.81
2019-01-30T12:30:16.332Z,95236.03
2019-01-30T12:33:22.994Z,95240.17
2019-01-30T12:36:29.943Z,95242.28
2019-01-30T12:39:36.742Z,95240.22
2019-01-30T12:42:44.235Z,95248.47
2019-01-30T12:45:50.627Z,95238.23
2019-01-30T12:48:57.349Z,95244.28
2019-01-30T12:52:03.911Z,95252.66
2019-01-30T12:55:10.665Z,95245.16
2019-01-30T12:58:17.150Z,95245.08
2019-01-30T13:01:23.888Z,95250.17
2019-01-30T13:04:38.687Z,95246.84
2019-01-30T13:07:38.596Z,95251.14
2019-01-30T13:10:45.497Z,95260.02
2019-01-30T13:13:52.786Z,95255.89
2019-01-30T13:16:59.240Z,95255.55
2019-01-30T13:20:08.171Z,95267.87
2019-01-30T13:23:14.672Z,95257.08
2019-01-30T13:26:20.908Z,95257.78
2019-01-30T13:29:27.747Z,95260.50
2019-01-30T13:32:34.787Z,95255.42
2019-01-30T13:35:43.062Z,95256.72
2019-01-30T13:38:49.874Z,95252.67
2019-01-30T13:41:57.448Z,95255.55
2019-01-30T13:45:05.419Z,95253.42
2019-01-30T13:48:16.520Z,95251.86
2019-01-30T13:51:23.505Z,95254.46
2019-01-30T13:54:30.270Z,95251.47
2019-01-30T13:57:36.927Z,95254.42
2019-01-30T14:00:43.704Z,95249.86
2019-01-30T14:03:50.309Z,95255.95
2019-01-30T14:06:57.105Z,95262.27
2019-01-30T14:10:04.076Z,95251.94
2019-01-30T14:13:12.373Z,95250.53
2019-01-30T14:16:18.741Z,95258.84
2019-01-30T14:19:25.194Z,95256.03
2019-01-30T14:22:31.988Z,95271.02
2019-01-30T14:25:39.045Z,95263.74
2019-01-30T14:28:45.835Z,95265.66
2019-01-30T14:31:53.167Z,95267.15
2019-01-30T14:35:10.157Z,95265.55
2019-01-30T14:38:09.089Z,95264.47
2019-01-30T14:41:16.203Z,95266.13
2019-01-30T14:44:23.930Z,95274.51
2019-01-30T14:47:31.340Z,95274.62
2019-01-30T14:50:38.685Z,95279.33
2019-01-30T14:53:45.681Z,95270.92
2019-01-30T14:56:53.207Z,95277.36
2019-01-30T14:59:59.904Z,95280.11
2019-01-30T15:03:07.223Z,95273.63
2019-01-30T15:06:14.461Z,95278.95
2019-01-30T15:09:21.384Z,95282.30
2019-01-30T15:12:29.185Z,95278.13
2019-01-30T15:15:37.402Z,95283.58
2019-01-30T15:18:46.407Z,95278.77
2019-01-30T15:21:56.947Z,95281.48
2019-01-30T15:25:03.664Z,95278.63
2019-01-30T15:28:11.276Z,95281.00
2019-01-30T15:31:18.303Z,95274.24
2019-01-30T15:34:26.043Z,95285.87
2019-01-30T15:37:32.713Z,95290.25
2019-01-30T15:40:39.648Z,95279.45
2019-01-30T15:43:49.393Z,95279.00
2019-01-30T15:46:56.135Z,95280.17
2019-01-30T15:50:03.146Z,95280.41
2019-01-30T15:53:13.429Z,95282.06
2019-01-30T15:56:19.945Z,95281.02
2019-01-30T15:59:26.825Z,95280.77
2019-01-30T16:02:33.616Z,95283.25
2019-01-30T16:05:44.949Z,95288.57
2019-01-30T16:08:49.099Z,95294.27
2019-01-30T16:11:56.442Z,95292.72
2019-01-30T16:15:02.803Z,95291.56
2019-01-30T16:18:09.975Z,95295.09
2019-01-30T16:21:17.025Z,95284.79
2019-01-30T16:24:23.408Z,95288.34
2019-01-30T16:27:30.627Z,95290.48
2019-01-30T16:30:37.047Z,95287.26
2019-01-30T16:33:43.935Z,95287.98
2019-01-30T16:36:50.323Z,95293.20
2019-01-30T16:39:57.706Z,95288.94
2019-01-30T16:43:05.193Z,95291.88
2019-01-30T16:46:12.049Z,95296.38
2019-01-30T16:49:18.403Z,95294.02
2019-01-30T16:52:25.100Z,95296.73
2019-01-30T16:55:32.260Z,95299.70
2019-01-30T16:58:38.746Z,95301.73
2019-01-30T17:01:45.359Z,95300.20
2019-01-30T17:04:51.780Z,95303.50
2019-01-30T17:07:58.166Z,95305.04
2019-01-30T17:11:04.893Z,95312.38
2019-01-30T17:14:12.053Z,95299.13
2019-01-30T17:17:19.103Z,95313.34
2019-01-30T17:20:28.187Z,95316.88
2019-01-30T17:23:35.023Z,95309.19
2019-01-30T17:26:41.927Z,95306.59
2019-01-30T17:29:48.856Z,95312.87
2019-01-30T17:32:55.582Z,95306.70
2019-01-30T17:36:01.951Z,95318.44
2019-01-30T17:39:10.527Z,95310.27
2019-01-30T17:42:17.533Z,95316.39
2019-01-30T17:45:24.559Z,95320.42
2019-01-30T17:48:31.032Z,95329.20
2019-01-30T17:51:38.687Z,95332.38
2019-01-30T17:54:45.607Z,95322.91
2019-01-30T17:57:52.767Z,95324.69
2019-01-30T18:01:01.765Z,95340.91
2019-01-30T18:04:08.830Z,95334.64
2019-01-30T18:07:15.740Z,95342.31
2019-01-30T18:10:22.450Z,95343.27
2019-01-30T18:13:30.203Z,95344.09
2019-01-30T18:16:38.233Z,95345.54
2019-01-30T18:19:44.912Z,95345.64
2019-01-30T18:22:51.654Z,95346.92
2019-01-30T18:26:01.219Z,95353.58
2019-01-30T18:29:07.331Z,95358.56
2019-01-30T18:32:15.073Z,95362.91
2019-01-30T18:35:21.523Z,95360.91
2019-01-30T18:38:28.375Z,95363.62
2019-01-30T18:41:36.423Z,95358.77
2019-01-30T18:44:43.727Z,95360.63
2019-01-30T18:47:50.368Z,95362.33
2019-01-30T18:50:57.416Z,95366.46
2019-01-30T18:54:04.060Z,95372.14
2019-01-30T18:57:10.526Z,95375.45
2019-01-30T19:00:24.528Z,95371.30
2019-01-30T19:03:31.170Z,95372.92
2019-01-30T19:06:38.477Z,95376.60
2019-01-30T19:09:48.000Z,95384.31
2019-01-30T19:12:55.047Z,95385.97
2019-01-30T19:16:01.715Z,95388.09
2019-01-30T19:19:09.259Z,95392.73
2019-01-30T19:22:16.552Z,95397.28
2019-01-30T19:25:23.548Z,95405.14
2019-01-30T19:28:31.185Z,95397.69
2019-01-30T19:31:40.930Z,95401.53
2019-01-30T19:34:48.308Z,95403.09
2019-01-30T19:37:56.467Z,95418.48
2019-01-30T19:41:03.501Z,95416.23
2019-01-30T19:44:11.375Z,95427.59
2019-01-30T19:47:18.115Z,95425.82
2019-01-30T19:50:26.133Z,95426.04
2019-01-30T19:53:33.149Z,95427.95
2019-01-30T19:56:40.271Z,95435.25
2019-01-30T19:59:47.146Z,95436.42
2019-01-30T20:02:53.748Z,95428.80
2019-01-30T20:06:00.329Z,95439.28
2019-01-30T20:09:13.551Z,95443.11
2019-01-30T20:12:23.828Z,95446.36
2019-01-30T20:15:31.321Z,95453.81
2019-01-30T20:18:38.328Z,95451.91
2019-01-30T20:21:44.907Z,95453.17
2019-01-30T20:24:51.680Z,95458.59
2019-01-30T20:27:58.569Z,95461.11
2019-01-30T20:31:05.503Z,95475.94
2019-01-30T20:34:12.351Z,95471.91
2019-01-30T20:37:25.864Z,95482.06
2019-01-30T20:40:28.900Z,95482.45
2019-01-30T20:43:35.692Z,95490.26
2019-01-30T20:46:42.529Z,95481.63
2019-01-30T20:49:50.738Z,95489.56
2019-01-30T20:52:58.783Z,95490.48
2019-01-30T20:56:05.877Z,95497.72
2019-01-30T20:59:14.326Z,95500.33
2019-01-30T21:02:20.929Z,95504.27
2019-01-30T21:05:27.572Z,95513.42
2019-01-30T21:08:34.211Z,95504.19
2019-01-30T21:11:40.721Z,95505.48
2019-01-30T21:14:49.172Z,95507.97
2019-01-30T21:17:56.571Z,95505.23
2019-01-30T21:21:04.186Z,95512.95
2019-01-30T21:24:13.668Z,95515.89
2019-01-30T21:27:20.893Z,95515.89
2019-01-30T21:30:30.073Z,95518.93
2019-01-30T21:33:36.907Z,95521.76
2019-01-30T21:36:43.517Z,95528.61
2019-01-30T21:39:50.559Z,95523.88
2019-01-30T21:42:57.990Z,95529.34
2019-01-30T21:46:05.345Z,95530.38
2019-01-30T21:49:13.297Z,95532.16
2019-01-30T21:52:20.412Z,95536.16
2019-01-30T21:55:27.532Z,95546.49
2019-01-30T21:58:34.065Z,95545.05
2019-01-30T22:01:40.866Z,95549.09
2019-01-30T22:04:47.232Z,95542.94
2019-01-30T22:08:00.827Z,95547.13
2019-01-30T22:11:02.754Z,95535.16
2019-01-30T22:14:09.261Z,95534.67
2019-01-30T22:17:16.214Z,95537.56
2019-01-30T22:20:24.468Z,95538.11
2019-01-30T22:23:30.982Z,95538.45
2019-01-30T22:26:38.010Z,95543.19
2019-01-30T22:29:45.075Z,95554.59
2019-01-30T22:32:51.826Z,95555.58
2019-01-30T22:35:58.584Z,95558.02
2019-01-30T22:39:07.900Z,95567.59
2019-01-30T22:42:15.348Z,95570.70
2019-01-30T22:45:22.387Z,95568.98
2019-01-30T22:48:29.216Z,95576.78
2019-01-30T22:51:39.500Z,95572.13
2019-01-30T22:54:47.830Z,95574.19
2019-01-30T22:57:54.839Z,95568.22
2019-01-30T23:01:26.245Z,95563.70
2019-01-30T23:05:09.148Z,95566.44
2019-01-30T23:08:56.973Z,95564.58
2019-01-30T23:12:39.780Z,95577.94
2019-01-30T23:16:28.681Z,95583.62
2019-01-30T23:20:02.116Z,95583.82
2019-01-30T23:24:01.616Z,95587.73
2019-01-30T23:27:33.492Z,95584.12
2019-01-30T23:31:12.413Z,95582.41
2019-01-30T23:34:32.346Z,95584.98
2019-01-30T23:37:54.539Z,95575.43
2019-01-30T23:41:37.879Z,95577.11
2019-01-30T23:45:00.474Z,95573.69
2019-01-30T23:48:52.439Z,95568.58
2019-01-30T23:52:57.988Z,95568.28
2019-01-30T23:56:46.074Z,95568.48
